Time;durP1;ratioP1;P1;durP2;ratioP2;P2;SDS_P1;SDS_P2;PMS_P1;PMS_P2;Temp;Humidity;BMP_temperature;BMP_pressure;BME280_temperature;BME280_humidity;BME280_pressure;Samples;Min_cycle;Max_cycle;Signal;HPM_P1;HPM_P2
2022/06/15 00:00:00;;;;;;;1.17;1.00;;;15.70;52.80;;;;;;5018159;28;20033;-74
2022/06/15 00:02:25;;;;;;;2.58;1.20;;;15.60;53.00;;;;;;4990584;28;20030;-74
2022/06/15 00:04:51;;;;;;;2.53;1.00;;;15.60;53.20;;;;;;5042206;28;20049;-74
2022/06/15 00:07:16;;;;;;;1.65;1.05;;;15.50;53.20;;;;;;5006739;28;20041;-74
2022/06/15 00:09:42;;;;;;;4.07;1.40;;;15.50;53.40;;;;;;5009583;28;20112;-74
2022/06/15 00:12:08;;;;;;;1.30;1.08;;;15.40;53.30;;;;;;5023286;28;20097;-74
2022/06/15 00:14:34;;;;;;;1.67;1.23;;;15.40;53.50;;;;;;5013417;28;20026;-74
2022/06/15 00:16:59;;;;;;;1.83;1.20;;;15.40;53.60;;;;;;5030225;28;20103;-74
2022/06/15 00:19:25;;;;;;;2.33;1.27;;;15.30;53.50;;;;;;5030381;28;20501;-75
2022/06/15 00:21:51;;;;;;;1.48;1.30;;;15.30;54.40;;;;;;5045376;28;20053;-75
2022/06/15 00:24:16;;;;;;;1.48;0.98;;;15.20;53.90;;;;;;5019100;28;20040;-75
2022/06/15 00:26:42;;;;;;;1.80;1.00;;;15.20;54.00;;;;;;5013939;28;20045;-75
2022/06/15 00:29:08;;;;;;;1.33;1.10;;;15.20;54.10;;;;;;5045818;28;20042;-74
2022/06/15 00:31:33;;;;;;;2.20;1.30;;;15.10;54.20;;;;;;5020932;28;20041;-74
2022/06/15 00:33:59;;;;;;;1.50;1.10;;;15.10;54.20;;;;;;5009277;28;20040;-74
2022/06/15 00:36:25;;;;;;;2.13;1.00;;;15.00;54.40;;;;;;5032517;28;20102;-75
2022/06/15 00:38:54;;;;;;;3.35;1.25;;;15.00;54.50;;;;;;5019657;28;20033;-75
2022/06/15 00:41:22;;;;;;;1.25;1.15;;;15.00;54.80;;;;;;5012474;28;20109;-75
2022/06/15 00:43:50;;;;;;;3.53;1.35;;;14.90;54.70;;;;;;5009354;28;20061;-75
2022/06/15 00:46:31;;;;;;;2.38;1.08;;;14.90;54.80;;;;;;4995845;28;20036;-75
2022/06/15 00:49:03;;;;;;;1.65;1.30;;;14.80;55.30;;;;;;5012136;28;20033;-75
2022/06/15 00:51:29;;;;;;;2.45;1.00;;;14.80;55.00;;;;;;5005391;28;20037;-75
2022/06/15 00:53:55;;;;;;;1.35;1.10;;;14.80;55.10;;;;;;5014613;28;20034;-75
2022/06/15 00:56:20;;;;;;;2.38;1.17;;;14.70;55.10;;;;;;4998721;28;20091;-75
2022/06/15 00:58:48;;;;;;;2.33;1.15;;;14.70;55.80;;;;;;5025176;28;20188;-75
2022/06/15 01:01:13;;;;;;;1.60;1.10;;;14.70;55.30;;;;;;5002068;28;20121;-75
2022/06/15 01:03:39;;;;;;;4.20;1.20;;;14.60;55.40;;;;;;5011965;28;20032;-74
2022/06/15 01:06:22;;;;;;;5.25;1.00;;;14.60;55.60;;;;;;5040196;28;20033;-74
2022/06/15 01:09:20;;;;;;;2.45;1.17;;;14.50;55.90;;;;;;5021832;28;20100;-75
2022/06/15 01:12:00;;;;;;;4.53;0.98;;;14.50;56.10;;;;;;4988647;28;20040;-74
2022/06/15 01:14:33;;;;;;;3.50;1.10;;;14.50;55.90;;;;;;5034555;28;20037;-75
2022/06/15 01:17:32;;;;;;;2.42;1.30;;;14.40;55.80;;;;;;5006623;28;20050;-74
2022/06/15 01:20:03;;;;;;;1.80;1.25;;;14.40;56.30;;;;;;5013377;28;20568;-75
2022/06/15 01:23:11;;;;;;;1.30;1.20;;;14.30;56.50;;;;;;5024354;28;20037;-75
2022/06/15 01:25:41;;;;;;;1.55;1.27;;;14.30;56.60;;;;;;5035308;28;20095;-75
2022/06/15 01:28:25;;;;;;;1.38;1.27;;;14.20;56.20;;;;;;4995448;28;20787;-74
2022/06/15 01:31:28;;;;;;;2.22;1.30;;;14.20;56.70;;;;;;5015647;28;20045;-75
2022/06/15 01:34:00;;;;;;;1.52;1.20;;;14.10;56.70;;;;;;5049667;28;20119;-74
2022/06/15 01:36:44;;;;;;;2.10;0.95;;;14.10;56.40;;;;;;5012822;28;20037;-74
2022/06/15 01:39:17;;;;;;;2.17;1.10;;;14.00;56.50;;;;;;5037107;28;20040;-74
2022/06/15 01:41:53;;;;;;;1.38;1.00;;;14.00;56.60;;;;;;5015459;28;20156;-74
2022/06/15 01:44:52;;;;;;;2.85;1.30;;;14.00;57.00;;;;;;4994979;28;20085;-74
2022/06/15 01:47:22;;;;;;;1.30;1.20;;;13.90;56.90;;;;;;4989057;28;20434;-74
2022/06/15 01:49:57;;;;;;;1.38;1.00;;;13.90;56.90;;;;;;5011470;28;20553;-73
2022/06/15 01:52:24;;;;;;;3.58;1.30;;;13.90;57.10;;;;;;4990290;28;20060;-74
2022/06/15 01:54:52;;;;;;;2.25;1.15;;;13.80;57.10;;;;;;4992387;28;20106;-74
2022/06/15 01:57:18;;;;;;;5.00;1.50;;;13.80;57.20;;;;;;5014266;28;20044;-73
2022/06/15 01:59:55;;;;;;;1.10;1.00;;;13.70;57.30;;;;;;5037792;28;20812;-74
2022/06/15 02:02:39;;;;;;;1.92;1.10;;;13.70;57.60;;;;;;4998364;28;20112;-74
2022/06/15 02:05:29;;;;;;;2.90;1.42;;;13.70;57.50;;;;;;5033091;28;20037;-74
2022/06/15 02:08:00;;;;;;;2.33;1.30;;;13.60;58.10;;;;;;5044667;28;20029;-74
2022/06/15 02:10:42;;;;;;;1.10;1.00;;;13.60;57.90;;;;;;5021746;28;20037;-73
2022/06/15 02:13:29;;;;;;;2.20;1.20;;;13.50;57.90;;;;;;5004685;28;20037;-74
2022/06/15 02:15:58;;;;;;;1.75;1.10;;;13.50;57.90;;;;;;5014846;28;20049;-74
2022/06/15 02:18:24;;;;;;;1.33;1.10;;;13.50;57.90;;;;;;5010406;28;20059;-74
2022/06/15 02:20:52;;;;;;;1.92;1.60;;;13.50;58.10;;;;;;5023324;28;20033;-74
2022/06/15 02:23:17;;;;;;;2.58;1.15;;;13.40;58.20;;;;;;5013782;28;20069;-74
2022/06/15 02:25:44;;;;;;;2.25;1.27;;;13.40;58.60;;;;;;5011311;28;20041;-73
2022/06/15 02:28:10;;;;;;;1.80;1.20;;;13.40;58.50;;;;;;5011859;28;20026;-74
2022/06/15 02:30:35;;;;;;;1.40;1.10;;;13.30;58.50;;;;;;5027821;28;20060;-74
2022/06/15 02:33:26;;;;;;;2.00;1.25;;;13.30;58.60;;;;;;5028697;28;20156;-74
2022/06/15 02:35:52;;;;;;;2.03;1.20;;;13.30;59.30;;;;;;5012052;28;20042;-74
2022/06/15 02:38:18;;;;;;;2.58;1.10;;;13.20;58.70;;;;;;5025944;28;20128;-74
2022/06/15 02:40:43;;;;;;;1.35;1.20;;;13.30;58.90;;;;;;5009147;28;20064;-73
2022/06/15 02:43:12;;;;;;;4.65;1.17;;;13.20;59.00;;;;;;5018695;28;20041;-75
2022/06/15 02:45:38;;;;;;;1.67;1.20;;;13.20;59.10;;;;;;5011931;28;20030;-74
2022/06/15 02:48:04;;;;;;;4.00;1.45;;;13.20;59.20;;;;;;5016135;28;20037;-73
2022/06/15 02:50:33;;;;;;;1.88;1.02;;;13.10;59.20;;;;;;5013980;28;20140;-75
2022/06/15 02:53:11;;;;;;;4.03;1.20;;;13.10;59.40;;;;;;4990093;28;20033;-74
2022/06/15 02:55:36;;;;;;;1.67;1.27;;;13.10;59.70;;;;;;4994749;28;20225;-75
2022/06/15 02:58:27;;;;;;;1.50;1.40;;;13.00;59.40;;;;;;4991472;28;20052;-75
2022/06/15 03:00:53;;;;;;;2.40;1.20;;;13.00;59.60;;;;;;5020088;28;20128;-74
2022/06/15 03:03:18;;;;;;;2.67;1.40;;;13.00;59.50;;;;;;5015870;28;20037;-74
2022/06/15 03:05:47;;;;;;;1.95;1.10;;;13.00;59.70;;;;;;5027183;28;20120;-74
2022/06/15 03:08:13;;;;;;;2.22;1.50;;;12.90;59.70;;;;;;5021670;28;20044;-74
2022/06/15 03:10:39;;;;;;;1.90;1.35;;;12.90;59.90;;;;;;5013641;28;20089;-74
2022/06/15 03:13:04;;;;;;;3.80;1.27;;;12.90;60.00;;;;;;5024864;28;20029;-74
2022/06/15 03:15:30;;;;;;;1.58;1.30;;;12.90;60.10;;;;;;5027936;28;20116;-74
2022/06/15 03:17:55;;;;;;;3.00;1.33;;;12.80;60.00;;;;;;4985337;28;20063;-74
2022/06/15 03:20:21;;;;;;;2.90;1.38;;;12.80;60.10;;;;;;5022750;28;20052;-74
2022/06/15 03:22:47;;;;;;;6.57;1.60;;;12.80;60.30;;;;;;5009550;28;20040;-74
2022/06/15 03:25:13;;;;;;;2.00;1.13;;;12.80;60.30;;;;;;4993916;28;20040;-74
2022/06/15 03:27:39;;;;;;;3.10;1.33;;;12.80;60.50;;;;;;5040787;28;20029;-75
2022/06/15 03:30:07;;;;;;;2.40;1.30;;;12.70;60.40;;;;;;5026444;28;20705;-74
2022/06/15 03:32:32;;;;;;;4.15;1.50;;;12.70;60.70;;;;;;5016395;28;20043;-75
2022/06/15 03:34:58;;;;;;;2.20;1.30;;;12.70;60.80;;;;;;4988187;28;20135;-74
2022/06/15 03:37:23;;;;;;;3.88;1.40;;;12.70;60.80;;;;;;5014568;28;20057;-74
2022/06/15 03:39:49;;;;;;;1.65;1.25;;;12.70;60.90;;;;;;5016467;28;20120;-74
2022/06/15 03:42:19;;;;;;;2.03;1.40;;;12.70;61.10;;;;;;4991413;28;20044;-74
2022/06/15 03:44:44;;;;;;;2.72;1.30;;;12.70;61.20;;;;;;4973468;28;20041;-74
2022/06/15 03:47:16;;;;;;;3.10;1.33;;;12.60;61.20;;;;;;4994107;28;20042;-74
2022/06/15 03:49:47;;;;;;;4.35;1.65;;;12.60;61.30;;;;;;5013240;28;20068;-74
2022/06/15 03:52:13;;;;;;;3.88;1.30;;;12.60;61.50;;;;;;5040152;28;20107;-75
2022/06/15 03:54:38;;;;;;;2.28;1.35;;;12.60;61.50;;;;;;5022110;28;20053;-75
2022/06/15 03:57:04;;;;;;;2.28;1.20;;;12.60;61.60;;;;;;5020635;28;20037;-73
2022/06/15 03:59:30;;;;;;;3.70;1.63;;;12.60;61.90;;;;;;5008664;28;20132;-75
2022/06/15 04:01:55;;;;;;;2.35;1.55;;;12.60;61.90;;;;;;5019546;28;20037;-74
2022/06/15 04:04:21;;;;;;;1.92;1.50;;;12.50;62.10;;;;;;5008154;28;20034;-74
2022/06/15 04:06:46;;;;;;;2.30;1.45;;;12.50;62.10;;;;;;5033995;28;20113;-74
2022/06/15 04:09:12;;;;;;;1.52;1.30;;;12.50;62.20;;;;;;5019869;28;20041;-75
2022/06/15 04:14:22;;;;;;;2.72;1.70;;;12.50;62.50;;;;;;5024878;28;20032;-74
2022/06/15 04:16:53;;;;;;;4.95;1.48;;;12.50;62.70;;;;;;5013368;28;20601;-74
2022/06/15 04:19:20;;;;;;;2.55;1.40;;;12.50;62.80;;;;;;4991404;28;20032;-74
2022/06/15 04:21:45;;;;;;;2.00;1.67;;;12.50;62.90;;;;;;5018184;28;20525;-76
2022/06/15 04:24:11;;;;;;;2.78;1.40;;;12.60;63.20;;;;;;4990530;28;20040;-74
2022/06/15 04:26:38;;;;;;;2.40;1.42;;;12.60;63.50;;;;;;5022300;28;20562;-75
2022/06/15 04:29:04;;;;;;;4.30;1.55;;;12.60;63.80;;;;;;5039118;28;20041;-74
2022/06/15 04:31:29;;;;;;;2.45;1.40;;;12.60;64.00;;;;;;5021203;28;20034;-74
2022/06/15 04:33:55;;;;;;;2.00;1.42;;;12.60;64.10;;;;;;5011644;28;20053;-74
2022/06/15 04:36:20;;;;;;;3.38;1.73;;;12.60;64.20;;;;;;5011241;28;20033;-74
2022/06/15 04:38:46;;;;;;;4.55;1.35;;;12.60;64.30;;;;;;5017669;28;20115;-74
2022/06/15 04:41:11;;;;;;;2.38;1.60;;;12.60;64.30;;;;;;5023448;28;20426;-74
2022/06/15 04:43:37;;;;;;;1.55;1.45;;;12.70;64.60;;;;;;4989203;28;20060;-74
2022/06/15 04:46:03;;;;;;;4.32;1.65;;;12.70;64.80;;;;;;5015844;28;20045;-74
2022/06/15 04:48:29;;;;;;;2.47;1.52;;;12.70;64.90;;;;;;5014208;28;20045;-74
2022/06/15 04:50:55;;;;;;;1.85;1.38;;;12.80;65.00;;;;;;5024017;28;20033;-74
2022/06/15 04:53:21;;;;;;;1.77;1.60;;;12.80;65.00;;;;;;4997290;28;20058;-74
2022/06/15 04:55:46;;;;;;;2.88;1.58;;;12.80;65.10;;;;;;5018886;28;20042;-75
2022/06/15 04:58:12;;;;;;;4.45;1.85;;;12.90;65.20;;;;;;4997592;28;20037;-74
2022/06/15 05:00:40;;;;;;;2.13;1.75;;;12.90;65.10;;;;;;5040151;28;20033;-73
2022/06/15 05:03:06;;;;;;;4.90;1.70;;;12.90;65.20;;;;;;5029841;28;20040;-74
2022/06/15 05:05:31;;;;;;;3.03;1.73;;;13.00;65.40;;;;;;5005599;28;20042;-75
2022/06/15 05:07:57;;;;;;;3.05;2.00;;;13.10;65.30;;;;;;5009777;28;20035;-75
2022/06/15 05:10:24;;;;;;;3.75;1.50;;;13.10;65.30;;;;;;5010192;28;20112;-73
2022/06/15 05:12:49;;;;;;;2.00;1.75;;;13.20;65.40;;;;;;5006935;28;20046;-74
2022/06/15 05:15:15;;;;;;;7.20;1.90;;;13.20;65.50;;;;;;5000763;28;20052;-75
2022/06/15 05:17:41;;;;;;;3.65;1.73;;;13.30;65.50;;;;;;4991010;28;20038;-74
2022/06/15 05:20:10;;;;;;;5.40;1.70;;;13.40;65.80;;;;;;5035409;28;20573;-74
2022/06/15 05:22:39;;;;;;;3.42;1.70;;;13.40;65.80;;;;;;5005551;28;20092;-74
2022/06/15 05:25:05;;;;;;;4.43;1.80;;;13.50;65.80;;;;;;5009658;28;20041;-73
2022/06/15 05:27:31;;;;;;;5.53;1.83;;;13.60;65.60;;;;;;4987593;28;21260;-73
2022/06/15 05:29:57;;;;;;;3.38;2.10;;;13.70;65.80;;;;;;5014690;28;20049;-74
2022/06/15 05:32:22;;;;;;;9.43;1.95;;;13.70;65.70;;;;;;4994683;28;20035;-74
2022/06/15 05:34:48;;;;;;;3.83;2.20;;;13.90;65.80;;;;;;5017074;28;20458;-74
2022/06/15 05:37:14;;;;;;;3.72;2.05;;;13.90;66.50;;;;;;5008404;28;20038;-74
2022/06/15 05:39:40;;;;;;;5.32;2.13;;;14.00;65.70;;;;;;5006581;28;20041;-74
2022/06/15 05:42:06;;;;;;;5.53;1.88;;;14.10;65.60;;;;;;5013628;28;20041;-74
2022/06/15 05:44:51;;;;;;;3.10;1.50;;;14.20;65.50;;;;;;5005507;28;20033;-74
2022/06/15 05:47:16;;;;;;;7.95;2.13;;;14.30;65.10;;;;;;5003845;28;20029;-74
2022/06/15 05:49:42;;;;;;;3.90;1.70;;;14.40;64.80;;;;;;5020019;28;20583;-74
2022/06/15 05:52:07;;;;;;;5.05;1.58;;;14.50;64.70;;;;;;5003195;28;20569;-74
2022/06/15 05:54:33;;;;;;;5.65;1.85;;;14.60;64.40;;;;;;4991760;28;20026;-74
2022/06/15 05:56:58;;;;;;;5.18;1.70;;;14.70;64.20;;;;;;5004107;28;20599;-74
2022/06/15 05:59:24;;;;;;;4.93;1.70;;;14.80;64.00;;;;;;4995047;28;20121;-74
2022/06/15 06:01:49;;;;;;;7.43;1.63;;;14.90;63.80;;;;;;5018700;28;20055;-74
2022/06/15 06:04:17;;;;;;;5.18;1.50;;;15.00;63.60;;;;;;5014460;28;20049;-75
2022/06/15 06:06:42;;;;;;;3.33;1.40;;;15.20;63.50;;;;;;5008350;28;20030;-74
2022/06/15 06:09:09;;;;;;;5.05;1.55;;;15.30;63.20;;;;;;4987471;28;20044;-74
2022/06/15 06:11:35;;;;;;;2.97;1.58;;;15.40;62.90;;;;;;5022955;28;20034;-75
2022/06/15 06:14:01;;;;;;;4.28;1.40;;;15.50;62.70;;;;;;5011363;28;20052;-74
2022/06/15 06:16:26;;;;;;;10.40;1.40;;;15.60;62.60;;;;;;5031129;28;20045;-74
2022/06/15 06:18:52;;;;;;;6.60;1.55;;;15.70;62.40;;;;;;5015079;28;20034;-75
2022/06/15 06:21:18;;;;;;;4.28;1.20;;;15.90;62.10;;;;;;5028368;28;20093;-74
2022/06/15 06:23:44;;;;;;;6.55;1.75;;;16.00;62.00;;;;;;4999509;28;20953;-74
2022/06/15 06:26:24;;;;;;;7.65;2.25;;;16.10;61.70;;;;;;5009354;28;20041;-75
2022/06/15 06:28:49;;;;;;;3.92;1.50;;;16.30;61.60;;;;;;5009920;28;20049;-75
2022/06/15 06:31:16;;;;;;;3.47;1.60;;;16.40;61.20;;;;;;5015599;28;20092;-75
2022/06/15 06:33:41;;;;;;;4.90;1.63;;;16.60;61.10;;;;;;5025290;28;20025;-74
2022/06/15 06:36:11;;;;;;;4.20;1.67;;;16.70;60.80;;;;;;5027187;28;20112;-75
2022/06/15 06:38:37;;;;;;;6.10;1.45;;;16.90;60.60;;;;;;5028185;28;20507;-74
2022/06/15 06:41:03;;;;;;;3.05;1.83;;;17.00;60.30;;;;;;5023639;28;20041;-74
2022/06/15 06:43:28;;;;;;;3.30;1.50;;;17.20;60.10;;;;;;5024349;28;20040;-75
2022/06/15 06:45:54;;;;;;;3.40;1.70;;;17.40;59.90;;;;;;5022016;28;20041;-74
2022/06/15 06:48:20;;;;;;;3.70;1.60;;;17.60;59.70;;;;;;5011268;28;20538;-74
2022/06/15 06:50:45;;;;;;;4.97;1.40;;;17.70;59.40;;;;;;5007183;28;20632;-74
2022/06/15 06:53:12;;;;;;;5.30;1.90;;;17.90;59.10;;;;;;5010286;28;20033;-74
2022/06/15 06:55:37;;;;;;;4.78;1.92;;;18.10;58.90;;;;;;5013150;28;20097;-75
2022/06/15 06:58:03;;;;;;;3.63;1.45;;;18.20;58.60;;;;;;5018030;28;20101;-74
2022/06/15 07:00:30;;;;;;;3.75;1.48;;;18.40;58.30;;;;;;5007626;28;20039;-74
2022/06/15 07:02:57;;;;;;;1.95;1.75;;;18.60;58.00;;;;;;4983314;28;20030;-74
2022/06/15 07:05:23;;;;;;;4.53;1.77;;;18.80;57.60;;;;;;5010721;28;20609;-74
2022/06/15 07:07:48;;;;;;;4.70;1.50;;;19.00;57.40;;;;;;4998496;28;20041;-74
2022/06/15 07:10:14;;;;;;;5.65;1.45;;;19.20;57.10;;;;;;5015059;28;20052;-74
2022/06/15 07:12:42;;;;;;;4.78;1.65;;;19.40;56.90;;;;;;4991948;28;20041;-74
2022/06/15 07:15:08;;;;;;;5.93;1.33;;;19.60;56.60;;;;;;5037236;28;20533;-74
2022/06/15 07:17:46;;;;;;;2.90;1.60;;;19.80;56.40;;;;;;5015637;28;20041;-75
2022/06/15 07:20:12;;;;;;;4.40;1.45;;;20.10;55.90;;;;;;5023276;28;20332;-74
2022/06/15 07:22:37;;;;;;;3.95;1.60;;;20.20;55.70;;;;;;4978048;28;20050;-74
2022/06/15 07:25:04;;;;;;;3.92;1.42;;;20.50;55.50;;;;;;5009317;28;20100;-75
2022/06/15 07:27:29;;;;;;;2.80;1.75;;;20.60;55.10;;;;;;5008563;28;20052;-74
2022/06/15 07:29:58;;;;;;;4.35;2.90;;;20.80;54.80;;;;;;5007953;28;20292;-75
2022/06/15 07:32:23;;;;;;;4.45;1.98;;;21.10;54.60;;;;;;4995182;28;20060;-75
2022/06/15 07:34:49;;;;;;;3.35;1.90;;;21.30;54.20;;;;;;5043901;28;20029;-75
2022/06/15 07:37:14;;;;;;;3.63;2.90;;;21.50;53.90;;;;;;5030840;28;20049;-75
2022/06/15 07:39:41;;;;;;;5.97;2.20;;;21.70;53.50;;;;;;5009526;28;20037;-75
2022/06/15 07:42:07;;;;;;;2.25;1.42;;;21.90;53.20;;;;;;5015788;28;20306;-74
2022/06/15 07:44:34;;;;;;;5.90;3.95;;;22.10;52.80;;;;;;5024746;28;20233;-74
2022/06/15 07:49:54;;;;;;;4.53;1.98;;;22.50;52.00;;;;;;5007382;28;20520;-75
2022/06/15 07:52:19;;;;;;;3.35;2.08;;;22.70;51.70;;;;;;5041963;28;20028;-76
2022/06/15 07:54:45;;;;;;;3.45;1.83;;;23.00;51.50;;;;;;4989009;28;20029;-75
2022/06/15 07:57:10;;;;;;;6.63;3.78;;;23.10;51.10;;;;;;5012386;28;20068;-74
2022/06/15 07:59:36;;;;;;;7.28;3.30;;;23.30;50.80;;;;;;5009081;28;20371;-76
2022/06/15 08:02:01;;;;;;;6.45;2.33;;;23.50;50.50;;;;;;5024148;28;20046;-72
2022/06/15 08:04:27;;;;;;;5.97;1.92;;;23.70;50.10;;;;;;4994120;28;20048;-72
2022/06/15 08:06:52;;;;;;;4.00;2.22;;;23.90;49.90;;;;;;5003247;28;20040;-73
2022/06/15 08:09:18;;;;;;;6.28;2.22;;;24.00;49.60;;;;;;4999399;28;20094;-74
2022/06/15 08:12:11;;;;;;;9.50;2.40;;;24.20;49.20;;;;;;5030039;28;20041;-73
2022/06/15 08:14:31;;;;;;;4.97;2.33;;;24.40;49.70;;;;;;5014247;28;20421;-73
2022/06/15 08:16:57;;;;;;;9.68;2.53;;;24.70;48.70;;;;;;4998574;28;20030;-72
2022/06/15 08:19:24;;;;;;;2.83;1.92;;;24.90;48.50;;;;;;4988857;28;20095;-73
2022/06/15 08:21:49;;;;;;;4.47;2.20;;;25.00;48.10;;;;;;5002802;28;20427;-73
2022/06/15 08:24:15;;;;;;;9.43;2.20;;;25.20;47.80;;;;;;5003154;28;21098;-75
2022/06/15 08:26:43;;;;;;;3.60;2.20;;;25.40;47.50;;;;;;5006017;28;20584;-74
2022/06/15 08:29:10;;;;;;;5.28;2.38;;;25.60;47.20;;;;;;5008967;28;20454;-74
2022/06/15 08:31:36;;;;;;;6.53;2.25;;;25.80;47.00;;;;;;5011140;28;20694;-74
2022/06/15 08:34:03;;;;;;;4.45;2.25;;;26.00;47.40;;;;;;5008750;28;20029;-75
2022/06/15 08:36:29;;;;;;;5.20;2.30;;;26.20;46.40;;;;;;5021076;28;20041;-74
2022/06/15 08:38:56;;;;;;;4.78;2.38;;;26.40;46.10;;;;;;5022352;28;20034;-75
2022/06/15 08:41:45;;;;;;;7.55;2.65;;;26.60;45.90;;;;;;5006755;28;20034;-74
2022/06/15 08:44:34;;;;;;;4.63;2.20;;;26.80;45.00;;;;;;5011032;28;20797;-76
2022/06/15 08:47:30;;;;;;;3.28;2.22;;;27.00;45.30;;;;;;5010385;28;20124;-75
2022/06/15 08:49:59;;;;;;;5.80;2.10;;;27.20;44.40;;;;;;5011385;28;20040;-74
2022/06/15 08:52:32;;;;;;;3.78;2.40;;;27.40;44.60;;;;;;5028965;28;20041;-75
2022/06/15 08:55:00;;;;;;;3.78;2.40;;;27.70;44.30;;;;;;5020516;28;20564;-74
2022/06/15 08:57:33;;;;;;;7.38;2.42;;;27.80;44.70;;;;;;5005830;28;20477;-75
2022/06/15 09:00:16;;;;;;;11.38;2.58;;;28.10;43.40;;;;;;4991953;28;20032;-75
2022/06/15 09:02:45;;;;;;;8.95;2.83;;;28.20;42.70;;;;;;5007596;28;20029;-75
2022/06/15 09:05:45;;;;;;;4.93;2.53;;;28.40;42.90;;;;;;5022506;28;21288;-74
2022/06/15 09:08:19;;;;;;;5.88;2.63;;;28.60;42.10;;;;;;5009729;28;20034;-75
2022/06/15 09:10:50;;;;;;;6.10;2.28;;;28.80;42.40;;;;;;5007885;28;20111;-75
2022/06/15 09:13:31;;;;;;;9.25;2.58;;;29.00;41.90;;;;;;5022685;28;20067;-74
2022/06/15 09:16:09;;;;;;;3.95;2.42;;;29.20;41.80;;;;;;5023935;28;20022;-74
2022/06/15 09:18:50;;;;;;;4.75;2.55;;;29.40;41.40;;;;;;4970683;28;20048;-75
2022/06/15 09:21:25;;;;;;;6.63;2.75;;;29.60;40.90;;;;;;5007532;28;20518;-75
2022/06/15 09:23:57;;;;;;;5.53;2.20;;;29.70;40.50;;;;;;5002053;28;20570;-75
2022/06/15 09:26:32;;;;;;;4.15;2.33;;;30.00;40.60;;;;;;5038722;28;20029;-75
2022/06/15 09:29:08;;;;;;;7.45;2.70;;;30.20;39.90;;;;;;4997696;28;20037;-74
2022/06/15 09:31:56;;;;;;;3.08;2.17;;;30.30;39.70;;;;;;5015561;28;20056;-75
2022/06/15 09:34:32;;;;;;;3.30;2.30;;;30.50;38.90;;;;;;5016662;28;20033;-75
2022/06/15 09:36:57;;;;;;;6.63;2.35;;;30.70;39.00;;;;;;4991958;28;20034;-74
2022/06/15 09:39:23;;;;;;;6.13;2.00;;;30.90;39.00;;;;;;5021338;28;20754;-75
2022/06/15 09:42:10;;;;;;;3.35;2.15;;;31.10;38.60;;;;;;5022617;28;20053;-75
2022/06/15 09:44:48;;;;;;;5.78;2.22;;;31.20;37.70;;;;;;5023580;28;20072;-75
2022/06/15 09:47:26;;;;;;;3.10;1.80;;;31.40;38.10;;;;;;5030989;28;20041;-75
2022/06/15 09:50:20;;;;;;;3.45;2.03;;;31.60;37.70;;;;;;5012577;28;20121;-75
2022/06/15 09:52:49;;;;;;;2.58;2.00;;;31.80;36.90;;;;;;5021829;28;20053;-75
2022/06/15 09:55:26;;;;;;;4.03;2.20;;;32.00;37.30;;;;;;5024292;28;20527;-75
2022/06/15 09:57:52;;;;;;;5.65;2.05;;;32.20;36.80;;;;;;5010553;28;20544;-76
2022/06/15 10:00:17;;;;;;;5.13;2.10;;;32.30;36.70;;;;;;5029981;28;20045;-74
2022/06/15 10:02:47;;;;;;;5.18;2.17;;;32.30;36.20;;;;;;5028798;28;20182;-74
2022/06/15 10:05:24;;;;;;;7.80;2.73;;;32.40;35.70;;;;;;4995292;28;20054;-74
2022/06/15 10:07:49;;;;;;;2.65;2.30;;;32.50;35.20;;;;;;4995511;28;20032;-76
2022/06/15 10:10:23;;;;;;;2.45;1.77;;;32.60;35.30;;;;;;5016823;28;20041;-75
2022/06/15 10:12:58;;;;;;;5.38;2.05;;;32.80;35.30;;;;;;5009372;28;20053;-75
2022/06/15 10:15:33;;;;;;;5.28;1.83;;;32.90;34.90;;;;;;5013310;28;20053;-75
2022/06/15 10:18:21;;;;;;;4.75;1.67;;;33.10;34.50;;;;;;5046740;28;20303;-75
2022/06/15 10:21:14;;;;;;;3.97;2.10;;;33.20;34.40;;;;;;5041548;28;20090;-75
2022/06/15 10:23:54;;;;;;;2.92;2.10;;;33.30;33.70;;;;;;5002526;28;20057;-76
2022/06/15 10:26:35;;;;;;;6.40;1.77;;;33.50;33.30;;;;;;5025411;28;21156;-75
2022/06/15 10:29:18;;;;;;;6.32;1.95;;;33.60;33.50;;;;;;5023259;28;20809;-76
2022/06/15 10:32:03;;;;;;;1.92;1.48;;;33.70;32.70;;;;;;5022869;28;20053;-74
2022/06/15 10:34:35;;;;;;;3.72;1.85;;;33.90;33.50;;;;;;5023698;28;20037;-75
2022/06/15 10:37:26;;;;;;;3.53;1.80;;;34.10;33.20;;;;;;5042925;28;20047;-76
2022/06/15 10:39:54;;;;;;;2.00;1.50;;;34.30;31.80;;;;;;5030295;28;20037;-75
2022/06/15 10:42:27;;;;;;;4.30;2.05;;;34.40;32.60;;;;;;5019291;28;20037;-75
2022/06/15 10:45:00;;;;;;;2.53;1.63;;;34.50;32.00;;;;;;5010710;28;20038;-75
2022/06/15 10:47:48;;;;;;;2.53;1.40;;;34.70;31.30;;;;;;5010496;28;20041;-76
2022/06/15 10:50:40;;;;;;;4.40;1.65;;;34.70;31.00;;;;;;5004522;28;20048;-77
2022/06/15 10:53:09;;;;;;;5.65;1.65;;;34.90;31.50;;;;;;5023512;28;20049;-75
2022/06/15 11:04:18;;;;;;;1.85;1.55;;;35.50;30.10;;;;;;4981969;28;20056;-76
2022/06/15 11:07:20;;;;;;;3.38;1.90;;;35.80;29.60;;;;;;5038523;28;20045;-76
2022/06/15 11:09:54;;;;;;;4.93;2.10;;;35.90;29.50;;;;;;5000365;28;20120;-77
2022/06/15 11:12:21;;;;;;;3.38;1.50;;;36.00;29.70;;;;;;5015514;28;20036;-76
2022/06/15 11:14:54;;;;;;;4.18;1.75;;;36.20;29.80;;;;;;5026275;28;20053;-77
2022/06/15 11:20:32;;;;;;;3.97;1.50;;;36.40;29.50;;;;;;5017075;28;20083;-75
2022/06/15 11:23:19;;;;;;;4.93;1.50;;;36.60;28.70;;;;;;5019332;28;20033;-76
2022/06/15 11:26:01;;;;;;;2.70;1.20;;;36.70;28.10;;;;;;5012642;28;20030;-76
2022/06/15 11:28:29;;;;;;;4.38;1.60;;;36.80;28.00;;;;;;5000807;28;20048;-72
2022/06/15 11:31:04;;;;;;;2.90;1.23;;;36.90;28.40;;;;;;5004650;28;20056;-75
2022/06/15 11:33:36;;;;;;;2.72;1.30;;;37.00;28.10;;;;;;4993530;28;20036;-74
2022/06/15 11:36:09;;;;;;;2.97;1.50;;;37.10;28.40;;;;;;5012631;28;20098;-75
2022/06/15 11:38:48;;;;;;;2.75;1.23;;;37.20;28.20;;;;;;5025245;28;20065;-76
2022/06/15 11:41:13;;;;;;;4.07;1.73;;;37.30;27.50;;;;;;5042307;28;20149;-75
2022/06/15 11:43:42;;;;;;;2.20;1.50;;;37.40;27.90;;;;;;5027901;28;20053;-75
2022/06/15 11:46:25;;;;;;;5.63;1.35;;;37.60;27.80;;;;;;5018222;28;20076;-75
2022/06/15 11:49:01;;;;;;;3.17;1.65;;;37.70;27.20;;;;;;5034922;28;20582;-76
2022/06/15 11:51:41;;;;;;;5.60;1.50;;;37.80;27.20;;;;;;4982250;28;22170;-76
2022/06/15 11:54:30;;;;;;;4.57;1.55;;;37.90;26.60;;;;;;5010143;28;20124;-75
2022/06/15 11:57:04;;;;;;;2.45;1.25;;;38.00;26.80;;;;;;5010290;28;20036;-76
2022/06/15 11:59:48;;;;;;;2.58;1.70;;;38.00;26.80;;;;;;5004131;28;20116;-76
2022/06/15 12:02:44;;;;;;;4.53;1.50;;;38.20;26.50;;;;;;5007558;28;20041;-76
2022/06/15 12:05:34;;;;;;;1.17;1.08;;;38.30;26.10;;;;;;5009428;28;20045;-76
2022/06/15 12:08:18;;;;;;;2.47;1.35;;;38.40;26.00;;;;;;4997740;28;20038;-75
2022/06/15 12:10:50;;;;;;;2.40;1.40;;;38.50;26.30;;;;;;5029666;28;20060;-76
2022/06/15 12:13:47;;;;;;;2.00;1.27;;;38.60;26.40;;;;;;5006196;28;20041;-75
2022/06/15 12:16:30;;;;;;;3.00;1.27;;;38.70;25.60;;;;;;5024299;28;20253;-75
2022/06/15 12:19:04;;;;;;;3.80;1.42;;;38.80;25.40;;;;;;5019176;28;20141;-75
2022/06/15 12:21:37;;;;;;;4.53;1.60;;;38.80;25.50;;;;;;5009087;28;20037;-75
2022/06/15 12:24:26;;;;;;;2.25;1.10;;;38.80;25.60;;;;;;5035745;28;20045;-74
2022/06/15 12:27:04;;;;;;;1.85;1.30;;;38.90;25.60;;;;;;5010284;28;20032;-76
2022/06/15 12:29:51;;;;;;;2.70;1.23;;;39.00;25.60;;;;;;5010531;28;20045;-74
2022/06/15 12:32:34;;;;;;;3.10;1.27;;;39.10;25.20;;;;;;5019662;28;20033;-75
2022/06/15 12:35:15;;;;;;;1.25;1.10;;;39.20;25.40;;;;;;5025002;28;20033;-74
2022/06/15 12:37:53;;;;;;;1.27;1.00;;;39.30;24.70;;;;;;5010570;28;20065;-75
2022/06/15 12:40:30;;;;;;;2.60;1.08;;;39.50;25.10;;;;;;5000264;28;20076;-75
2022/06/15 12:43:13;;;;;;;1.30;1.17;;;39.60;24.90;;;;;;5000054;28;20097;-74
2022/06/15 12:45:44;;;;;;;1.23;1.00;;;39.70;24.20;;;;;;5022127;28;20044;-75
2022/06/15 12:48:34;;;;;;;2.13;1.23;;;39.80;24.60;;;;;;5007083;28;20042;-74
2022/06/15 12:51:39;;;;;;;1.58;0.90;;;39.80;24.00;;;;;;4997710;28;20034;-74
2022/06/15 12:54:11;;;;;;;1.55;1.00;;;39.90;23.90;;;;;;5009422;28;20534;-74
2022/06/15 12:57:00;;;;;;;1.70;1.23;;;39.90;24.20;;;;;;5014842;28;20120;-75
2022/06/15 12:59:36;;;;;;;4.38;1.20;;;39.80;24.10;;;;;;5008904;28;20057;-75
2022/06/15 13:02:19;;;;;;;2.67;1.40;;;39.80;24.20;;;;;;4992875;28;20136;-75
2022/06/15 13:04:47;;;;;;;3.30;1.13;;;39.80;23.80;;;;;;5013210;28;20643;-76
2022/06/15 13:07:31;;;;;;;2.10;1.15;;;39.80;24.20;;;;;;5002929;28;20034;-75
2022/06/15 13:10:11;;;;;;;2.92;1.10;;;39.90;23.30;;;;;;5021590;28;20094;-76
2022/06/15 13:12:51;;;;;;;;;;;39.90;23.60;;;;;;5020799;28;20108;-75
2022/06/15 13:15:18;;;;;;;2.72;1.45;;;39.90;24.10;;;;;;5013161;28;19978;-76
2022/06/15 13:18:14;;;;;;;1.30;1.20;;;40.00;24.20;;;;;;5011076;28;20025;-75
2022/06/15 13:20:45;;;;;;;1.70;1.20;;;40.00;23.70;;;;;;5000303;28;20119;-76
2022/06/15 13:23:17;;;;;;;2.13;1.33;;;40.20;23.70;;;;;;5030492;28;20052;-75
2022/06/15 13:25:53;;;;;;;3.22;1.40;;;40.30;23.60;;;;;;5002171;28;20581;-75
2022/06/15 13:28:21;;;;;;;1.73;0.95;;;40.40;23.20;;;;;;5015723;28;20052;-76